| time (UTC) | temp C | wind direction | speed KPH | gust KPH | rain 1hr cm | rain 24hr cm | rain mn cm | humidity % | barometer mb |
| 20260506144530 | -2 | 347 | 1.6 | 3.2 | 0.00 | 0.36 | 0.00 | 85 | 1020.7 |
| 20260506143027 | -2 | 348 | 1.6 | 4.8 | 0.00 | 0.36 | 0.00 | 88 | 1020.7 |
| 20260506141524 | -2 | 360 | 1.6 | 3.2 | 0.00 | 0.36 | 0.00 | 90 | 1020.7 |
| 20260506140027 | -3 | 360 | 1.6 | 4.8 | 0.00 | 0.36 | 0.00 | 91 | 1020.4 |
| 20260506134522 | -3 | 360 | 3.2 | 6.4 | 0.00 | 0.36 | 0.00 | 91 | 1020.4 |
| 20260506133028 | -3 | 360 | 1.6 | 9.7 | 0.00 | 0.36 | 0.00 | 91 | 1020.4 |
| 20260506131520 | -3 | 346 | 1.6 | 8.0 | 0.00 | 0.36 | 0.00 | 92 | 1020.0 |
| 20260506130015 | -3 | 355 | 1.6 | 4.8 | 0.00 | 0.36 | 0.00 | 92 | 1019.5 |
| 20260506124513 | -3 | 15 | 1.6 | 8.0 | 0.00 | 0.36 | 0.00 | 92 | 1019.2 |
| 20260506123009 | -3 | 12 | 1.6 | 6.4 | 0.00 | 0.36 | 0.00 | 92 | 1019.1 |
| 20260506121506 | -3 | 12 | 1.6 | 4.8 | 0.00 | 0.36 | 0.00 | 92 | 1018.7 |
| 20260506120006 | -3 | 12 | 0.0 | 3.2 | 0.00 | 0.36 | 0.00 | 92 | 1018.7 |
| 20260506114513 | -3 | 12 | 0.0 | 3.2 | 0.00 | 0.36 | 0.00 | 92 | 1018.6 |
| 20260506113002 | -3 | 12 | 0.0 | 6.4 | 0.00 | 0.36 | 0.00 | 92 | 1018.3 |
| 20260506111559 | -3 | 12 | 0.0 | 4.8 | 0.00 | 0.36 | 0.00 | 92 | 1018.1 |
| 20260506110058 | -3 | 12 | 0.0 | 3.2 | 0.00 | 0.36 | 0.00 | 92 | 1017.8 |
| 20260506104604 | -3 | 12 | 0.0 | 3.2 | 0.00 | 0.36 | 0.00 | 92 | 1017.9 |
| 20260506103055 | -3 | 12 | 0.0 | 3.2 | 0.00 | 0.36 | 0.00 | 92 | 1017.6 |
| 20260506101552 | -3 | 12 | 0.0 | 4.8 | 0.00 | 0.36 | 0.00 | 92 | 1017.6 |
| 20260506100105 | -3 | 24 | 0.0 | 1.6 | 0.00 | 0.36 | 0.00 | 92 | 1017.6 |
| 20260506094550 | -3 | 24 | 0.0 | 3.2 | 0.00 | 0.36 | 0.00 | 92 | 1017.5 |
| 20260506093047 | -3 | 24 | 0.0 | 3.2 | 0.00 | 0.36 | 0.00 | 92 | 1017.4 |
| 20260506091549 | -3 | 24 | 1.6 | 6.4 | 0.00 | 0.36 | 0.00 | 92 | 1017.4 |
| 20260506090042 | -3 | 25 | 1.6 | 4.8 | 0.00 | 0.36 | 0.00 | 92 | 1017.1 |
| 20260506084543 | -3 | 25 | 1.6 | 4.8 | 0.00 | 0.36 | 0.00 | 92 | 1017.2 |
| 20260506083040 | -3 | 25 | 0.0 | 3.2 | 0.00 | 0.36 | 0.00 | 92 | 1016.9 |
| 20260506081542 | -3 | 25 | 0.0 | 3.2 | 0.00 | 0.36 | 0.00 | 92 | 1017.1 |
| 20260506073034 | -2 | 22 | 0.0 | 3.2 | 0.00 | 0.41 | 0.00 | 93 | 1017.2 |
| 20260506071532 | -2 | 22 | 0.0 | 3.2 | 0.00 | 0.41 | 0.00 | 92 | 1016.9 |
| 20260506061524 | -2 | 22 | 0.0 | 3.2 | 0.00 | 0.48 | 0.00 | 92 | 1016.8 |
| 20260506044524 | -2 | 44 | 3.2 | 6.4 | 0.00 | 0.48 | 0.48 | 92 | 1015.2 |
| 20260506043010 | -2 | 43 | 0.0 | 4.8 | 0.00 | 0.48 | 0.48 | 91 | 1015.2 |
| 20260506041509 | -1 | 43 | 0.0 | 4.8 | 0.00 | 0.48 | 0.48 | 91 | 1015.1 |
| 20260506040008 | -1 | 43 | 0.0 | 3.2 | 0.00 | 0.48 | 0.48 | 91 | 1015.0 |
| 20260506034507 | -1 | 43 | 0.0 | 3.2 | 0.00 | 0.48 | 0.48 | 91 | 1014.6 |
| 20260506033005 | -1 | 43 | 0.0 | 1.6 | 0.00 | 0.48 | 0.48 | 91 | 1014.3 |
| 20260506031511 | -1 | 43 | 0.0 | 0.0 | 0.00 | 0.48 | 0.48 | 91 | 1014.0 |
| 20260506030120 | -2 | 43 | 0.0 | 0.0 | 0.00 | 0.48 | 0.48 | 90 | 1013.6 |
| 20260506024600 | -1 | 43 | 0.0 | 0.0 | 0.00 | 0.48 | 0.48 | 90 | 1013.4 |
| 20260506023055 | -1 | 43 | 0.0 | 1.6 | 0.00 | 0.48 | 0.48 | 90 | 1013.1 |
| 20260506021559 | -1 | 43 | 0.0 | 0.0 | 0.00 | 0.48 | 0.48 | 89 | 1012.6 |
| 20260506020051 | -1 | 43 | 0.0 | 0.0 | 0.00 | 0.48 | 0.48 | 89 | 1012.2 |
| 20260506014558 | -1 | 43 | 0.0 | 1.6 | 0.03 | 0.48 | 0.48 | 88 | 1012.1 |
| 20260506013054 | -1 | 43 | 0.0 | 1.6 | 0.03 | 0.48 | 0.48 | 88 | 1011.9 |
| 20260506011547 | -1 | 43 | 0.0 | 1.6 | 0.03 | 0.48 | 0.48 | 88 | 1011.6 |
| 20260506010052 | -1 | 43 | 0.0 | 1.6 | 0.05 | 0.48 | 0.48 | 87 | 1011.4 |
| 20260506004550 | -1 | 43 | 0.0 | 1.6 | 0.03 | 0.46 | 0.46 | 87 | 1011.3 |
| 20260506003043 | -1 | 43 | 0.0 | 3.2 | 0.05 | 0.46 | 0.46 | 87 | 1011.1 |
| 20260506001546 | 0 | 43 | 0.0 | 4.8 | 0.05 | 0.46 | 0.46 | 87 | 1011.0 |
| 20260506000040 | 0 | 43 | 0.0 | 3.2 | 0.03 | 0.43 | 0.43 | 88 | 1010.6 |
| 20260505234539 | 0 | 44 | 1.6 | 3.2 | 0.05 | 0.43 | 0.43 | 88 | 1010.5 |
| 20260505233038 | -1 | 44 | 1.6 | 3.2 | 0.03 | 0.41 | 0.41 | 89 | 1010.6 |
| 20260505231536 | -1 | 44 | 0.0 | 3.2 | 0.03 | 0.41 | 0.41 | 88 | 1010.3 |
| 20260505230045 | -1 | 44 | 0.0 | 4.8 | 0.05 | 0.41 | 0.41 | 89 | 1010.2 |
| 20260505224537 | -1 | 44 | 1.6 | 3.2 | 0.05 | 0.38 | 0.38 | 89 | 1010.1 |
| 20260505223035 | -1 | 44 | 1.6 | 4.8 | 0.05 | 0.38 | 0.38 | 88 | 1009.9 |
| 20260505221532 | -1 | 44 | 0.0 | 3.2 | 0.08 | 0.38 | 0.38 | 88 | 1009.8 |
| 20260505220037 | -1 | 44 | 0.0 | 4.8 | 0.08 | 0.36 | 0.36 | 87 | 1009.3 |
| 20260505214534 | -1 | 44 | 1.6 | 4.8 | 0.08 | 0.36 | 0.33 | 87 | 1009.6 |
| 20260505213030 | -1 | 43 | 0.0 | 3.2 | 0.10 | 0.36 | 0.33 | 88 | 1009.2 |
| 20260505211527 | -1 | 43 | 0.0 | 6.4 | 0.10 | 0.33 | 0.30 | 87 | 1009.3 |
| 20260505210025 | -1 | 43 | 1.6 | 6.4 | 0.10 | 0.30 | 0.28 | 88 | 1009.1 |
| 20260505204524 | -1 | 44 | 1.6 | 11.3 | 0.10 | 0.28 | 0.25 | 88 | 1009.1 |
| 20260505203026 | -1 | 21 | 3.2 | 12.9 | 0.08 | 0.25 | 0.23 | 87 | 1009.0 |
| 20260505201517 | 0 | 21 | 3.2 | 6.4 | 0.05 | 0.23 | 0.20 | 85 | 1009.0 |
| 20260505200016 | 0 | 19 | 3.2 | 8.0 | 0.03 | 0.20 | 0.18 | 86 | 1009.0 |
| 20260505194514 | 0 | 17 | 1.6 | 8.0 | 0.03 | 0.18 | 0.15 | 87 | 1008.9 |
| 20260505193012 | 0 | 16 | 1.6 | 8.0 | 0.03 | 0.18 | 0.15 | 88 | 1009.0 |
| 20260505191513 | -1 | 14 | 1.6 | 6.4 | 0.03 | 0.18 | 0.15 | 88 | 1009.0 |
| 20260505190016 | 0 | 5 | 3.2 | 12.9 | 0.03 | 0.18 | 0.15 | 87 | 1009.0 |
| 20260505184517 | 0 | 5 | 3.2 | 12.9 | 0.00 | 0.15 | 0.13 | 84 | 1008.8 |
| 20260505183006 | 1 | 74 | 1.6 | 8.0 | 0.00 | 0.15 | 0.13 | 87 | 1008.4 |
| 20260505181506 | 1 | 117 | 3.2 | 6.4 | 0.00 | 0.15 | 0.13 | 88 | 1008.3 |
| 20260505180008 | 1 | 360 | 0.0 | 4.8 | 0.00 | 0.15 | 0.13 | 90 | 1008.4 |
| 20260505174505 | 0 | 360 | 1.6 | 6.4 | 0.00 | 0.15 | 0.13 | 90 | 1008.2 |
| 20260505173005 | 0 | 360 | 0.0 | 4.8 | 0.00 | 0.15 | 0.13 | 90 | 1008.3 |
| 20260505171505 | 0 | 360 | 0.0 | 3.2 | 0.00 | 0.15 | 0.13 | 90 | 1008.4 |
| 20260505170002 | 0 | 360 | 0.0 | 3.2 | 0.00 | 0.15 | 0.13 | 90 | 1008.2 |
| 20260505164600 | 0 | 360 | 0.0 | 4.8 | 0.00 | 0.15 | 0.13 | 91 | 1008.0 |
| 20260505163058 | 0 | 119 | 0.0 | 6.4 | 0.00 | 0.15 | 0.13 | 91 | 1007.9 |
| 20260505161556 | 0 | 117 | 3.2 | 6.4 | 0.00 | 0.15 | 0.13 | 91 | 1007.7 |
| 20260505153049 | 0 | 32 | 0.0 | 0.0 | 0.00 | 0.15 | 0.13 | 92 | 1007.6 |
| 20260505151544 | 0 | 32 | 0.0 | 0.0 | 0.00 | 0.15 | 0.13 | 93 | 1007.5 |